createdAt,value
2017-07-17T00:01:44.110Z,56.13
2017-07-17T00:04:12.417Z,67.93
2017-07-17T00:06:40.775Z,63.93
2017-07-17T00:09:09.071Z,76.97
2017-07-17T00:11:41.087Z,77.70
2017-07-17T00:14:09.432Z,66.93
2017-07-17T00:16:37.743Z,69.33
2017-07-17T00:19:06.101Z,65.67
2017-07-17T00:21:34.449Z,53.83
2017-07-17T00:24:03.865Z,63.40
2017-07-17T00:26:32.225Z,62.73
2017-07-17T00:29:00.593Z,62.77
2017-07-17T00:31:30.007Z,59.10
2017-07-17T00:33:58.363Z,66.23
2017-07-17T00:36:26.726Z,70.67
2017-07-17T00:38:55.141Z,60.40
2017-07-17T00:41:23.489Z,59.73
2017-07-17T00:43:51.860Z,72.53
2017-07-17T00:46:20.161Z,78.23
2017-07-17T00:48:48.500Z,59.40
2017-07-17T00:51:16.881Z,59.50
2017-07-17T00:53:45.231Z,60.37
2017-07-17T00:56:13.585Z,64.23
2017-07-17T00:58:41.881Z,64.20
2017-07-17T01:01:10.913Z,63.07
2017-07-17T01:03:39.221Z,65.07
2017-07-17T01:06:07.521Z,63.43
2017-07-17T01:08:35.881Z,71.43
2017-07-17T01:11:05.317Z,76.73
2017-07-17T01:13:33.620Z,80.20
2017-07-17T01:16:01.977Z,77.00
2017-07-17T01:18:30.357Z,91.97
2017-07-17T01:20:58.709Z,86.00
2017-07-17T01:23:27.092Z,88.93
2017-07-17T01:25:55.393Z,91.23
2017-07-17T01:28:23.701Z,95.33
2017-07-17T01:30:52.046Z,90.67
2017-07-17T01:33:20.438Z,75.70
2017-07-17T01:35:48.808Z,86.03
2017-07-17T01:38:17.181Z,82.97
2017-07-17T01:40:45.585Z,95.30
2017-07-17T01:43:13.933Z,69.90
2017-07-17T01:45:42.242Z,100.03
2017-07-17T01:48:10.550Z,74.67
2017-07-17T01:50:38.911Z,83.20
2017-07-17T01:53:07.219Z,80.57
2017-07-17T01:55:35.518Z,92.90
2017-07-17T01:58:04.265Z,77.17
2017-07-17T02:00:37.368Z,95.27
2017-07-17T02:03:05.732Z,98.40
2017-07-17T02:05:34.047Z,97.47
2017-07-17T02:08:02.364Z,94.37
2017-07-17T02:10:30.757Z,83.07
2017-07-17T02:12:59.159Z,82.50
2017-07-17T02:15:27.725Z,90.37
2017-07-17T02:17:56.913Z,91.63
2017-07-17T02:20:25.241Z,94.37
2017-07-17T02:22:53.551Z,88.87
2017-07-17T02:25:21.941Z,112.07
2017-07-17T02:27:50.241Z,108.17
2017-07-17T02:30:18.631Z,99.60
2017-07-17T02:32:46.956Z,103.57
2017-07-17T02:35:15.295Z,102.13
2017-07-17T02:37:43.643Z,94.60
2017-07-17T02:40:11.992Z,88.10
2017-07-17T02:42:40.337Z,97.77
2017-07-17T02:45:13.624Z,94.63
2017-07-17T02:47:42.164Z,84.73
2017-07-17T02:50:10.476Z,77.17
2017-07-17T02:52:38.777Z,74.37
2017-07-17T02:55:07.233Z,83.77
2017-07-17T02:57:35.538Z,95.07
2017-07-17T03:00:03.856Z,91.30
2017-07-17T03:02:32.218Z,99.20
2017-07-17T03:05:00.584Z,94.20
2017-07-17T03:07:28.969Z,80.53
2017-07-17T03:09:57.282Z,73.60
2017-07-17T03:12:25.645Z,81.37
2017-07-17T03:14:53.952Z,74.70
2017-07-17T03:17:22.262Z,66.37
2017-07-17T03:19:50.608Z,88.17
2017-07-17T03:22:18.997Z,101.97
2017-07-17T03:24:47.333Z,99.63
2017-07-17T03:27:16.322Z,86.37
2017-07-17T03:29:44.665Z,103.03
2017-07-17T03:32:13.009Z,80.43
2017-07-17T03:34:41.352Z,95.27
2017-07-17T03:37:09.652Z,92.40
2017-07-17T03:39:38.016Z,82.23
2017-07-17T03:42:06.317Z,79.00
2017-07-17T03:44:34.630Z,85.70
2017-07-17T03:47:03.009Z,79.13
2017-07-17T03:49:31.353Z,81.20
2017-07-17T03:51:59.669Z,86.40
2017-07-17T03:54:28.084Z,96.07
2017-07-17T03:56:56.436Z,97.50
2017-07-17T03:59:24.780Z,97.67
2017-07-17T04:01:53.156Z,93.60
2017-07-17T04:04:21.478Z,90.30
2017-07-17T04:06:49.854Z,87.83
2017-07-17T04:09:18.249Z,83.77
2017-07-17T04:11:46.641Z,87.10
2017-07-17T04:14:14.957Z,69.57
2017-07-17T04:16:43.374Z,81.07
2017-07-17T04:19:11.695Z,85.93
2017-07-17T04:21:40.059Z,82.90
2017-07-17T04:24:08.365Z,78.63
2017-07-17T04:26:36.709Z,84.30
2017-07-17T04:29:05.063Z,79.40
2017-07-17T04:31:33.432Z,80.37
2017-07-17T04:34:01.746Z,83.67
2017-07-17T04:36:30.101Z,83.33
2017-07-17T04:38:58.502Z,89.57
2017-07-17T04:41:26.881Z,100.30
2017-07-17T04:43:55.186Z,82.87
2017-07-17T04:46:23.489Z,81.17
2017-07-17T04:48:51.828Z,66.73
2017-07-17T04:51:20.173Z,69.67
2017-07-17T04:53:48.524Z,56.47
2017-07-17T04:56:16.837Z,73.87
2017-07-17T04:58:45.189Z,69.07
2017-07-17T05:01:13.547Z,59.53
2017-07-17T05:03:41.844Z,59.07
2017-07-17T05:06:12.644Z,61.60
2017-07-17T05:08:40.944Z,57.33
2017-07-17T05:11:09.288Z,63.60
2017-07-17T05:13:37.592Z,58.63
2017-07-17T05:16:05.936Z,55.90
2017-07-17T05:18:34.293Z,59.63
2017-07-17T05:21:02.636Z,60.27
2017-07-17T05:23:30.992Z,63.90
2017-07-17T05:25:59.361Z,59.00
2017-07-17T05:28:27.719Z,61.20
2017-07-17T05:30:56.069Z,63.40
2017-07-17T05:33:24.370Z,61.33
2017-07-17T05:35:52.945Z,71.97
2017-07-17T05:38:21.393Z,65.50
2017-07-17T05:40:49.696Z,70.67
2017-07-17T05:43:17.997Z,58.37
2017-07-17T05:45:46.348Z,60.23
2017-07-17T05:48:15.729Z,65.40
2017-07-17T05:50:44.072Z,63.50
2017-07-17T05:53:12.881Z,54.17
2017-07-17T05:55:41.241Z,63.50
2017-07-17T05:58:09.544Z,48.73
2017-07-17T06:00:37.842Z,49.33
2017-07-17T06:03:06.184Z,52.57
2017-07-17T06:05:34.481Z,40.70
2017-07-17T06:08:06.373Z,37.63
2017-07-17T06:10:34.673Z,39.37
2017-07-17T06:13:04.885Z,45.33
2017-07-17T06:15:33.234Z,59.73
2017-07-17T06:18:01.552Z,19.80
2017-07-17T06:20:29.930Z,16.67
2017-07-17T06:22:58.277Z,4.20
2017-07-17T06:25:26.632Z,3.63
2017-07-17T06:27:54.922Z,3.97
2017-07-17T06:30:24.291Z,3.23
2017-07-17T06:32:52.654Z,2.37
2017-07-17T06:35:20.988Z,1.90
2017-07-17T06:37:49.276Z,2.57
2017-07-17T06:40:17.614Z,3.17
2017-07-17T06:42:45.948Z,1.70
2017-07-17T06:45:14.533Z,2.60
2017-07-17T06:47:42.872Z,1.50
2017-07-17T06:50:11.156Z,1.77
2017-07-17T06:52:39.497Z,1.33
2017-07-17T06:55:07.785Z,1.20
2017-07-17T06:57:36.112Z,0.80
2017-07-17T07:00:04.430Z,2.47
2017-07-17T07:02:32.776Z,1.43
2017-07-17T07:05:01.141Z,3.00
2017-07-17T07:07:30.497Z,0.73
2017-07-17T07:09:58.881Z,0.80
2017-07-17T07:12:27.250Z,0.80
2017-07-17T07:14:55.653Z,1.00
2017-07-17T07:17:24.040Z,0.90
2017-07-17T07:19:52.328Z,0.60
2017-07-17T07:22:20.716Z,1.67
2017-07-17T07:24:49.086Z,0.60
2017-07-17T07:27:17.429Z,0.80
2017-07-17T07:29:45.716Z,0.90
2017-07-17T07:32:14.122Z,0.63
2017-07-17T07:34:42.525Z,0.60
2017-07-17T07:37:10.909Z,0.83
2017-07-17T07:39:39.614Z,0.70
2017-07-17T07:42:08.522Z,2.20
2017-07-17T07:44:37.044Z,0.60
2017-07-17T07:47:05.346Z,0.70
2017-07-17T07:49:33.648Z,0.60
2017-07-17T07:52:02.057Z,0.70
2017-07-17T07:54:30.367Z,0.70
2017-07-17T07:56:58.767Z,0.70
2017-07-17T07:59:27.071Z,0.60
2017-07-17T08:01:55.357Z,1.80
2017-07-17T08:04:23.697Z,0.73
2017-07-17T08:06:52.913Z,0.77
2017-07-17T08:09:21.254Z,0.70
2017-07-17T08:11:49.549Z,1.80
2017-07-17T08:14:17.920Z,0.90
2017-07-17T08:16:46.257Z,2.30
2017-07-17T08:19:14.592Z,0.63
2017-07-17T08:21:42.944Z,2.47
2017-07-17T08:24:11.232Z,1.03
2017-07-17T08:26:39.540Z,0.80
2017-07-17T08:29:07.892Z,0.80
2017-07-17T08:31:36.186Z,0.63
2017-07-17T08:34:04.480Z,0.80
2017-07-17T08:36:32.850Z,0.80
2017-07-17T08:39:01.151Z,0.70
2017-07-17T08:41:29.490Z,1.03
2017-07-17T08:43:57.841Z,0.70
2017-07-17T08:46:26.129Z,0.90
2017-07-17T08:48:54.501Z,1.10
2017-07-17T08:51:22.792Z,0.70
2017-07-17T08:53:51.129Z,0.60
2017-07-17T08:56:19.421Z,0.80
2017-07-17T08:58:47.757Z,0.87
2017-07-17T09:01:16.103Z,1.03
2017-07-17T09:03:44.397Z,0.73
2017-07-17T09:06:12.745Z,0.90
2017-07-17T09:08:41.041Z,0.83
2017-07-17T09:11:09.332Z,0.93
2017-07-17T09:13:37.682Z,1.00
2017-07-17T09:16:05.976Z,1.10
2017-07-17T09:18:34.325Z,1.10
2017-07-17T09:21:02.654Z,0.93
2017-07-17T09:23:30.953Z,1.00
2017-07-17T09:25:59.364Z,1.00
2017-07-17T09:28:27.879Z,0.83
2017-07-17T09:30:56.217Z,1.10
2017-07-17T09:33:24.560Z,1.00
2017-07-17T09:35:52.859Z,1.50
2017-07-17T09:38:21.204Z,1.40
2017-07-17T09:40:49.530Z,1.63
2017-07-17T09:43:17.877Z,1.73
2017-07-17T09:45:46.224Z,1.40
2017-07-17T09:48:14.532Z,1.60
2017-07-17T09:50:42.886Z,1.90
2017-07-17T09:53:11.181Z,1.40
2017-07-17T09:55:39.472Z,3.20
2017-07-17T09:58:07.814Z,1.60
2017-07-17T10:00:36.128Z,1.90
2017-07-17T10:03:04.436Z,2.10
2017-07-17T10:05:32.847Z,2.20
2017-07-17T10:08:07.165Z,1.63
2017-07-17T10:10:35.469Z,2.50
2017-07-17T11:58:56.925Z,3.00
2017-07-17T12:01:25.279Z,5.20
2017-07-17T12:03:53.571Z,2.80
2017-07-17T12:06:21.855Z,5.90
2017-07-17T12:08:50.189Z,4.70
2017-07-17T12:11:18.483Z,5.80
2017-07-17T12:13:46.837Z,7.00
2017-07-17T12:16:15.127Z,8.87
2017-07-17T12:18:43.416Z,6.53
2017-07-17T12:21:11.756Z,7.80
2017-07-17T12:23:40.047Z,9.40
2017-07-17T12:26:08.340Z,18.53
2017-07-17T12:28:36.768Z,10.17
2017-07-17T12:31:05.062Z,9.57
2017-07-17T12:33:33.364Z,10.23
2017-07-17T12:36:01.711Z,10.97
2017-07-17T12:38:30.000Z,11.00
2017-07-17T12:40:58.336Z,13.00
2017-07-17T12:43:26.632Z,12.20
2017-07-17T12:45:54.976Z,9.00
2017-07-17T12:48:23.261Z,9.00
2017-07-17T12:50:51.569Z,7.97
2017-07-17T12:53:19.900Z,4.73
2017-07-17T12:55:48.223Z,5.23
2017-07-17T12:58:16.513Z,6.20
2017-07-17T13:00:44.953Z,5.47
2017-07-17T13:03:15.074Z,4.63
2017-07-17T13:05:43.368Z,4.50
2017-07-17T13:08:11.702Z,4.63
2017-07-17T13:10:40.139Z,4.23
2017-07-17T13:13:08.431Z,3.50
2017-07-17T13:15:36.768Z,4.03
2017-07-17T13:18:05.092Z,4.67
2017-07-17T13:20:33.426Z,4.30
2017-07-17T13:23:01.752Z,3.30
2017-07-17T13:25:30.108Z,4.40
2017-07-17T13:27:58.393Z,10.33
2017-07-17T13:30:26.689Z,3.50
2017-07-17T13:32:55.012Z,3.90
2017-07-17T13:35:23.303Z,4.60
2017-07-17T13:37:51.644Z,4.37
2017-07-17T13:40:19.934Z,4.00
2017-07-17T13:42:48.232Z,3.47
2017-07-17T13:45:16.565Z,4.17
2017-07-17T13:47:44.864Z,4.57
2017-07-17T13:50:13.205Z,4.83
2017-07-17T13:52:41.568Z,5.83
2017-07-17T13:55:09.933Z,4.07
2017-07-17T13:57:38.380Z,4.23
2017-07-17T14:00:07.690Z,3.40
2017-07-17T14:02:36.085Z,4.70
2017-07-17T14:05:05.243Z,3.73
2017-07-17T14:07:33.666Z,4.83
2017-07-17T14:10:02.008Z,4.93
2017-07-17T14:12:30.304Z,4.70
2017-07-17T14:14:58.890Z,4.90
2017-07-17T14:17:27.226Z,4.80
2017-07-17T14:19:55.520Z,5.97
2017-07-17T14:22:23.866Z,6.80
2017-07-17T14:24:52.172Z,4.77
2017-07-17T14:27:20.493Z,9.17
2017-07-17T14:29:48.821Z,2.80
2017-07-17T14:32:17.111Z,3.50
2017-07-17T14:34:45.432Z,3.27
2017-07-17T14:37:13.724Z,2.03
2017-07-17T14:39:42.061Z,3.67
2017-07-17T14:42:10.351Z,3.77
2017-07-17T14:44:38.640Z,9.40
2017-07-17T14:47:07.067Z,2.70
2017-07-17T14:49:35.356Z,3.00
2017-07-17T14:52:03.721Z,2.37
2017-07-17T14:54:32.029Z,3.60
2017-07-17T14:57:00.359Z,3.93
2017-07-17T14:59:28.709Z,3.23
2017-07-17T15:01:57.012Z,2.63
2017-07-17T15:04:25.292Z,2.70
2017-07-17T15:06:53.660Z,2.07
2017-07-17T15:09:21.966Z,2.57
2017-07-17T15:11:50.296Z,2.30
2017-07-17T15:14:18.616Z,4.03
2017-07-17T15:16:46.903Z,3.83
2017-07-17T15:19:15.264Z,4.80
2017-07-17T15:21:43.552Z,3.37
2017-07-17T15:24:11.900Z,3.47
2017-07-17T15:26:40.188Z,5.80
2017-07-17T15:29:08.892Z,5.40
2017-07-17T15:31:37.236Z,4.83
2017-07-17T15:34:05.561Z,3.03
2017-07-17T15:36:33.840Z,2.27
2017-07-17T15:39:02.181Z,2.47
2017-07-17T15:41:30.513Z,2.63
2017-07-17T15:43:58.852Z,3.70
2017-07-17T15:46:27.212Z,2.73
2017-07-17T15:48:55.496Z,6.70
2017-07-17T15:51:23.781Z,4.30
2017-07-17T15:53:52.140Z,3.67
2017-07-17T15:56:20.436Z,8.73
2017-07-17T15:58:48.815Z,4.10
2017-07-17T16:01:17.180Z,4.73
2017-07-17T16:03:45.476Z,11.90
2017-07-17T16:06:13.760Z,1.80
2017-07-17T16:08:42.191Z,2.90
2017-07-17T16:11:10.515Z,4.40
2017-07-17T16:13:39.794Z,3.40
2017-07-17T16:16:08.081Z,4.27
2017-07-17T16:18:36.369Z,8.50
2017-07-17T16:21:05.844Z,3.67
2017-07-17T16:23:34.285Z,6.07
2017-07-17T16:26:02.580Z,6.57
2017-07-17T16:28:30.927Z,2.17
2017-07-17T16:30:59.217Z,3.37
2017-07-17T16:33:27.549Z,3.40
2017-07-17T16:35:55.846Z,3.80
2017-07-17T16:38:24.277Z,3.63
2017-07-17T16:40:55.005Z,5.07
2017-07-17T16:43:23.291Z,2.97
2017-07-17T16:45:51.634Z,3.40
2017-07-17T16:48:19.925Z,2.07
2017-07-17T16:50:48.233Z,3.50
2017-07-17T16:53:16.558Z,7.60
2017-07-17T16:55:44.848Z,5.60
2017-07-17T16:58:13.221Z,2.10
2017-07-17T17:00:41.508Z,8.13
2017-07-17T17:03:09.804Z,3.07
2017-07-17T17:05:38.144Z,3.43
2017-07-17T17:08:06.440Z,5.40
2017-07-17T17:10:34.784Z,2.10
2017-07-17T17:13:03.129Z,7.47
2017-07-17T17:15:31.416Z,2.87
2017-07-17T17:17:59.799Z,5.47
2017-07-17T17:20:28.090Z,3.00
2017-07-17T17:22:56.775Z,1.60
2017-07-17T17:25:25.131Z,4.83
2017-07-17T17:27:53.476Z,4.10
2017-07-17T17:30:21.856Z,5.03
2017-07-17T17:32:50.189Z,4.37
2017-07-17T17:35:18.536Z,2.80
2017-07-17T17:37:46.851Z,3.37
2017-07-17T17:40:15.146Z,5.87
2017-07-17T17:42:43.470Z,8.90
2017-07-17T17:45:11.765Z,5.23
2017-07-17T17:47:40.093Z,7.87
2017-07-17T17:50:08.381Z,7.17
2017-07-17T17:52:36.746Z,4.00
2017-07-17T17:55:05.032Z,4.67
2017-07-17T17:57:33.328Z,2.60
2017-07-17T18:00:03.042Z,2.57
2017-07-17T18:02:31.335Z,1.70
2017-07-17T18:05:05.287Z,3.73
2017-07-17T18:07:33.581Z,2.77
2017-07-17T18:10:01.911Z,7.73
2017-07-17T18:12:30.214Z,2.60
2017-07-17T18:14:58.552Z,1.80
2017-07-17T18:17:26.884Z,5.70
2017-07-17T18:19:55.221Z,3.90
2017-07-17T18:22:23.504Z,5.77
2017-07-17T18:24:51.832Z,2.80
2017-07-17T18:27:20.162Z,6.93
2017-07-17T18:29:48.457Z,3.03
2017-07-17T18:32:16.785Z,6.50
2017-07-17T18:34:45.116Z,8.90
2017-07-17T18:37:13.401Z,1.93
2017-07-17T18:39:41.728Z,2.40
2017-07-17T18:42:10.114Z,3.33
2017-07-17T18:44:38.441Z,1.50
2017-07-17T18:47:06.776Z,7.30
2017-07-17T18:49:35.072Z,2.33
2017-07-17T18:52:03.393Z,5.13
2017-07-17T18:54:31.693Z,2.63
2017-07-17T18:57:00.020Z,4.83
2017-07-17T18:59:28.365Z,2.30
2017-07-17T19:01:56.648Z,9.30
2017-07-17T19:04:24.993Z,4.63
2017-07-17T19:06:53.290Z,1.93
2017-07-17T19:09:21.628Z,2.60
2017-07-17T19:11:50.208Z,4.97
2017-07-17T19:14:18.484Z,2.70
2017-07-17T19:16:46.820Z,5.30
2017-07-17T19:19:15.124Z,5.60
2017-07-17T19:21:43.432Z,4.93
2017-07-17T19:24:12.337Z,6.70
2017-07-17T19:26:41.087Z,6.70
2017-07-17T19:29:09.655Z,9.23
2017-07-17T19:31:38.179Z,9.63
2017-07-17T19:34:06.756Z,3.57
2017-07-17T19:36:35.661Z,4.53
2017-07-17T19:39:05.375Z,7.30
2017-07-17T19:41:33.978Z,4.30
2017-07-17T19:44:02.749Z,18.17
2017-07-17T19:46:31.299Z,4.37
2017-07-17T19:49:01.234Z,7.90
2017-07-17T19:51:31.221Z,3.30
2017-07-17T19:53:59.942Z,6.17
2017-07-17T19:56:30.075Z,5.07
2017-07-17T19:58:58.592Z,5.40
2017-07-17T20:01:27.755Z,4.73
2017-07-17T20:04:11.508Z,11.07
2017-07-17T20:06:39.928Z,6.30
2017-07-17T20:09:08.283Z,4.33
2017-07-17T20:11:36.933Z,8.87
2017-07-17T20:14:05.229Z,8.50
2017-07-17T20:16:34.115Z,6.20
2017-07-17T20:19:02.454Z,5.87
2017-07-17T20:21:30.744Z,9.93
2017-07-17T20:23:59.072Z,4.43
2017-07-17T20:26:27.366Z,5.60
2017-07-17T20:28:55.703Z,8.33
2017-07-17T20:31:25.543Z,12.03
2017-07-17T20:33:53.896Z,5.13
2017-07-17T20:36:22.209Z,4.90
2017-07-17T20:38:50.504Z,5.20
2017-07-17T20:41:18.828Z,5.57
2017-07-17T20:43:47.250Z,6.60
2017-07-17T20:46:15.565Z,7.30
2017-07-17T20:48:43.896Z,12.63
2017-07-17T20:51:12.190Z,6.60
2017-07-17T20:53:40.512Z,6.23
2017-07-17T20:56:08.805Z,13.80
2017-07-17T20:58:37.148Z,8.10
2017-07-17T21:01:05.447Z,5.73
2017-07-17T21:03:33.787Z,10.27
2017-07-17T21:06:02.141Z,8.07
2017-07-17T21:08:30.425Z,5.90
2017-07-17T21:10:59.377Z,7.03
2017-07-17T21:13:27.721Z,6.70
2017-07-17T21:15:56.014Z,11.30
2017-07-17T21:18:24.313Z,8.50
2017-07-17T21:20:52.640Z,9.70
2017-07-17T21:23:20.927Z,8.17
2017-07-17T21:25:50.006Z,7.50
2017-07-17T21:28:18.359Z,17.40
2017-07-17T21:30:46.688Z,9.07
2017-07-17T21:33:15.020Z,17.80
2017-07-17T21:35:43.353Z,10.30
2017-07-17T21:38:11.649Z,13.80
2017-07-17T21:40:40.001Z,7.43
2017-07-17T21:43:08.299Z,7.17
2017-07-17T21:45:36.592Z,17.63
2017-07-17T21:48:04.932Z,12.60
2017-07-17T21:50:33.238Z,8.67
2017-07-17T21:53:01.528Z,10.43
2017-07-17T21:55:29.912Z,9.10
2017-07-17T21:57:58.202Z,10.80
2017-07-17T22:00:26.555Z,10.63
2017-07-17T22:02:54.844Z,12.47
2017-07-17T22:05:23.140Z,9.73
2017-07-17T22:07:51.519Z,9.30
2017-07-17T22:10:19.852Z,11.63
2017-07-17T22:12:48.182Z,12.40
2017-07-17T22:15:16.488Z,8.80
2017-07-17T22:17:44.833Z,7.90
2017-07-17T22:20:13.121Z,12.83
2017-07-17T22:22:41.915Z,8.83
2017-07-17T22:25:10.260Z,8.80
2017-07-17T22:27:38.552Z,12.93
2017-07-17T22:30:06.836Z,10.53
2017-07-17T22:32:35.169Z,9.90
2017-07-17T22:35:03.455Z,9.50
2017-07-17T22:37:31.780Z,9.10
2017-07-17T22:40:00.132Z,12.97
2017-07-17T22:42:28.527Z,11.33
2017-07-17T22:44:56.820Z,8.97
2017-07-17T22:47:25.143Z,11.40
2017-07-17T22:49:53.616Z,10.17
2017-07-17T22:52:22.746Z,10.37
2017-07-17T22:54:51.088Z,14.27
2017-07-17T22:57:19.443Z,24.10
2017-07-17T22:59:47.771Z,18.53
2017-07-17T23:02:16.065Z,25.53
2017-07-17T23:04:44.409Z,14.07
2017-07-17T23:07:12.725Z,9.50
2017-07-17T23:09:41.000Z,8.90
2017-07-17T23:12:09.330Z,8.90
2017-07-17T23:14:37.613Z,13.23
2017-07-17T23:17:05.958Z,15.77
2017-07-17T23:19:34.247Z,26.13
2017-07-17T23:22:02.584Z,9.93
2017-07-17T23:24:31.645Z,10.30
2017-07-17T23:26:59.968Z,12.80
2017-07-17T23:29:28.370Z,26.97
2017-07-17T23:31:57.159Z,11.47
2017-07-17T23:34:25.493Z,10.30
2017-07-17T23:36:53.939Z,9.67
2017-07-17T23:39:22.281Z,10.87
2017-07-17T23:41:50.587Z,9.33
2017-07-17T23:44:18.877Z,9.33
2017-07-17T23:46:47.308Z,15.73
2017-07-17T23:49:15.697Z,12.70
2017-07-17T23:51:44.092Z,8.93
2017-07-17T23:54:12.416Z,10.37
2017-07-17T23:56:40.784Z,12.67
2017-07-17T23:59:09.879Z,10.80
